Time;durP1;ratioP1;P1;durP2;ratioP2;P2;SDS_P1;SDS_P2;PMS_P1;PMS_P2;Temp;Humidity;BMP_temperature;BMP_pressure;BME280_temperature;BME280_humidity;BME280_pressure;Samples;Min_cycle;Max_cycle;Signal;HPM_P1;HPM_P2
2023/11/13 00:01:26;;;;;;;24.70;15.18;;;;;;;;;;6319464;22;20415;-84
2023/11/13 00:04:00;;;;;;;31.13;19.20;;;;;;;;;;6292320;22;20008;-84
2023/11/13 00:06:30;;;;;;;27.67;17.13;;;;;;;;;;6281011;22;20022;-85
2023/11/13 00:09:01;;;;;;;28.33;17.05;;;;;;;;;;6280907;22;20023;-83
2023/11/13 00:19:16;;;;;;;33.88;17.98;;;;;;;;;;6278143;22;20031;-83
2023/11/13 00:21:47;;;;;;;31.25;16.85;;;;;;;;;;6276413;22;20011;-84
2023/11/13 00:24:18;;;;;;;34.42;18.48;;;;;;;;;;6276184;22;20016;-83
2023/11/13 00:26:48;;;;;;;26.05;16.92;;;;;;;;;;6277926;22;20071;-84
2023/11/13 00:29:18;;;;;;;31.02;18.25;;;;;;;;;;6250768;22;20455;-82
2023/11/13 00:31:48;;;;;;;32.65;17.15;;;;;;;;;;6278381;22;20015;-84
2023/11/13 00:34:19;;;;;;;25.77;17.65;;;;;;;;;;6292735;22;20038;-83
2023/11/13 00:36:50;;;;;;;32.85;16.77;;;;;;;;;;6281496;22;20066;-85
2023/11/13 00:39:22;;;;;;;28.30;16.70;;;;;;;;;;6319499;22;20015;-87
2023/11/13 00:41:52;;;;;;;29.80;17.30;;;;;;;;;;6308650;22;20019;-85
2023/11/13 00:44:22;;;;;;;27.33;17.33;;;;;;;;;;6277696;22;20023;-84
2023/11/13 00:46:52;;;;;;;27.75;17.25;;;;;;;;;;6281700;22;20019;-88
2023/11/13 00:49:24;;;;;;;30.58;17.73;;;;;;;;;;6256471;22;20030;-84
2023/11/13 00:51:59;;;;;;;35.22;18.30;;;;;;;;;;6292377;22;20027;-84
2023/11/13 00:54:33;;;;;;;29.52;17.10;;;;;;;;;;6279438;22;20034;-85
2023/11/13 00:57:08;;;;;;;28.98;16.92;;;;;;;;;;6279506;22;20343;-84
2023/11/13 01:26:16;;;;;;;30.73;17.50;;;;;;;;;;6276543;22;20034;-83
2023/11/13 01:28:47;;;;;;;32.58;18.23;;;;;;;;;;6317792;22;20015;-84
2023/11/13 01:31:17;;;;;;;26.38;16.63;;;;;;;;;;6278338;22;20399;-83
2023/11/13 01:33:47;;;;;;;29.88;17.48;;;;;;;;;;6280402;22;20023;-85
2023/11/13 01:36:17;;;;;;;25.73;17.50;;;;;;;;;;6306710;22;20015;-88
2023/11/13 01:38:47;;;;;;;31.65;18.35;;;;;;;;;;6306965;22;20035;-84
2023/11/13 01:41:18;;;;;;;29.85;18.25;;;;;;;;;;6280449;22;20016;-87
2023/11/13 01:43:47;;;;;;;30.10;18.02;;;;;;;;;;6253317;22;20038;-84
2023/11/13 01:46:17;;;;;;;24.35;18.50;;;;;;;;;;6279132;22;20023;-85
2023/11/13 01:48:48;;;;;;;27.15;17.88;;;;;;;;;;6278857;22;20026;-86
2023/11/13 01:51:20;;;;;;;26.70;18.15;;;;;;;;;;6317860;22;20015;-88
2023/11/13 01:53:50;;;;;;;27.75;18.08;;;;;;;;;;6280336;22;20015;-87
2023/11/13 01:56:22;;;;;;;30.83;19.88;;;;;;;;;;6278892;22;20015;-84
2023/11/13 01:58:56;;;;;;;31.45;18.33;;;;;;;;;;6278723;22;20011;-84
2023/11/13 02:01:29;;;;;;;28.98;18.55;;;;;;;;;;6278982;22;20026;-87
2023/11/13 02:03:59;;;;;;;31.77;18.45;;;;;;;;;;6316225;22;20007;-82
2023/11/13 02:06:30;;;;;;;33.30;21.20;;;;;;;;;;6277490;22;20022;-85
2023/11/13 02:09:01;;;;;;;31.25;21.30;;;;;;;;;;6316717;22;20030;-85
2023/11/13 02:11:32;;;;;;;30.70;18.80;;;;;;;;;;6278025;22;20438;-83
2023/11/13 02:14:03;;;;;;;30.33;18.38;;;;;;;;;;6316523;22;20018;-83
2023/11/13 02:16:34;;;;;;;26.33;18.85;;;;;;;;;;6277936;22;20465;-82
2023/11/13 02:19:05;;;;;;;26.00;18.02;;;;;;;;;;6278344;22;20015;-85
2023/11/13 02:21:37;;;;;;;31.90;18.60;;;;;;;;;;6277928;22;20027;-85
2023/11/13 02:24:10;;;;;;;29.15;17.92;;;;;;;;;;6278511;22;20015;-85
2023/11/13 02:26:41;;;;;;;29.42;18.23;;;;;;;;;;6288526;22;20011;-86
2023/11/13 02:29:12;;;;;;;27.88;19.13;;;;;;;;;;6316991;22;20011;-85
2023/11/13 02:31:54;;;;;;;27.88;19.45;;;;;;;;;;6280431;22;20037;-84
2023/11/13 02:34:25;;;;;;;27.17;18.58;;;;;;;;;;6278385;22;20450;-84
2023/11/13 02:36:55;;;;;;;29.95;18.73;;;;;;;;;;6307380;22;20015;-86
2023/11/13 02:39:26;;;;;;;30.17;18.83;;;;;;;;;;6280097;22;20307;-83
2023/11/13 02:41:56;;;;;;;29.73;18.77;;;;;;;;;;6278702;22;20019;-85
2023/11/13 02:44:27;;;;;;;32.35;19.20;;;;;;;;;;6322639;22;20017;-84
2023/11/13 02:46:57;;;;;;;28.20;19.08;;;;;;;;;;6313147;22;20008;-83
2023/11/13 02:49:27;;;;;;;30.95;20.08;;;;;;;;;;6311435;22;20018;-82
2023/11/13 02:51:57;;;;;;;29.48;18.90;;;;;;;;;;6278154;22;20015;-87
2023/11/13 02:54:28;;;;;;;33.03;20.35;;;;;;;;;;6279360;22;20456;-85
2023/11/13 02:56:58;;;;;;;37.47;23.15;;;;;;;;;;6277947;22;20019;-85
2023/11/13 02:59:30;;;;;;;51.15;29.60;;;;;;;;;;6316611;22;20015;-86
2023/11/13 03:02:00;;;;;;;57.13;31.55;;;;;;;;;;6305943;22;20011;-85
2023/11/13 03:04:30;;;;;;;52.03;27.77;;;;;;;;;;6279807;22;20019;-85
2023/11/13 03:07:00;;;;;;;41.70;24.45;;;;;;;;;;6306587;22;20019;-84
2023/11/13 03:09:31;;;;;;;30.65;20.45;;;;;;;;;;6306140;22;20019;-88
2023/11/13 03:12:02;;;;;;;28.88;19.83;;;;;;;;;;6280224;22;20008;-83
2023/11/13 03:14:32;;;;;;;33.72;20.85;;;;;;;;;;6305611;22;20016;-86
2023/11/13 03:17:02;;;;;;;30.02;19.75;;;;;;;;;;6305468;22;20449;-86
2023/11/13 03:19:33;;;;;;;34.22;21.55;;;;;;;;;;6279389;22;20011;-84
2023/11/13 03:22:04;;;;;;;33.20;20.25;;;;;;;;;;6316154;22;20019;-85
2023/11/13 03:24:34;;;;;;;31.70;21.38;;;;;;;;;;6277291;22;20026;-84
2023/11/13 03:27:07;;;;;;;35.08;20.20;;;;;;;;;;6285601;22;20011;-83
2023/11/13 03:29:38;;;;;;;31.50;20.45;;;;;;;;;;6306051;22;20022;-86
2023/11/13 03:32:09;;;;;;;30.42;20.40;;;;;;;;;;6276757;22;20018;-83
2023/11/13 03:34:40;;;;;;;32.80;20.73;;;;;;;;;;6316321;22;20007;-84
2023/11/13 03:37:10;;;;;;;29.75;20.33;;;;;;;;;;6316506;22;20007;-88
2023/11/13 03:39:40;;;;;;;31.20;19.63;;;;;;;;;;6253089;22;20024;-85
2023/11/13 03:42:10;;;;;;;38.00;21.23;;;;;;;;;;6305728;22;20462;-83
2023/11/13 03:44:41;;;;;;;31.10;20.38;;;;;;;;;;6279098;22;20015;-86
2023/11/13 03:47:13;;;;;;;32.22;20.63;;;;;;;;;;6278134;22;20019;-85
2023/11/13 03:49:43;;;;;;;27.85;19.85;;;;;;;;;;6278427;22;20454;-85
2023/11/13 03:52:13;;;;;;;30.60;20.70;;;;;;;;;;6306843;22;20011;-86
2023/11/13 03:54:44;;;;;;;29.20;20.75;;;;;;;;;;6277848;22;20458;-85
2023/11/13 03:57:14;;;;;;;29.60;20.08;;;;;;;;;;6305350;22;20038;-86
2023/11/13 03:59:45;;;;;;;32.53;20.23;;;;;;;;;;6306169;22;20016;-85
2023/11/13 04:02:15;;;;;;;32.03;20.27;;;;;;;;;;6306723;22;20015;-90
2023/11/13 04:04:45;;;;;;;28.85;19.58;;;;;;;;;;6277750;22;20025;-88
2023/11/13 04:07:20;;;;;;;28.13;20.50;;;;;;;;;;6306101;22;20446;-85
2023/11/13 04:09:50;;;;;;;28.70;20.60;;;;;;;;;;6316357;22;20018;-89
2023/11/13 04:12:21;;;;;;;28.75;21.02;;;;;;;;;;6278365;22;20011;-85
2023/11/13 04:14:51;;;;;;;28.35;20.13;;;;;;;;;;6277900;22;20019;-88
2023/11/13 04:17:21;;;;;;;27.90;18.92;;;;;;;;;;6306835;22;20347;-84
2023/11/13 04:19:52;;;;;;;32.60;20.27;;;;;;;;;;6307311;22;20019;-84
2023/11/13 04:22:22;;;;;;;31.20;19.45;;;;;;;;;;6307120;22;20458;-89
2023/11/13 04:24:54;;;;;;;28.23;20.13;;;;;;;;;;6278194;22;20027;-86
2023/11/13 04:27:24;;;;;;;33.90;19.52;;;;;;;;;;6311598;22;20022;-84
2023/11/13 04:29:54;;;;;;;36.08;21.52;;;;;;;;;;6308449;22;20460;-83
2023/11/13 04:32:25;;;;;;;32.13;20.70;;;;;;;;;;6280438;22;20042;-84
2023/11/13 04:34:55;;;;;;;29.98;19.38;;;;;;;;;;6309143;22;20027;-87
2023/11/13 04:37:25;;;;;;;27.67;19.98;;;;;;;;;;6309260;22;20026;-85
2023/11/13 04:39:55;;;;;;;33.28;20.48;;;;;;;;;;6281966;22;20019;-84
2023/11/13 04:42:26;;;;;;;31.10;21.05;;;;;;;;;;6308529;22;20034;-83
2023/11/13 04:44:56;;;;;;;27.13;19.75;;;;;;;;;;6318440;22;20314;-84
2023/11/13 04:47:26;;;;;;;28.98;20.00;;;;;;;;;;6308322;22;20012;-85
2023/11/13 04:49:59;;;;;;;28.20;20.05;;;;;;;;;;6319847;22;20016;-84
2023/11/13 04:52:30;;;;;;;31.23;20.95;;;;;;;;;;6280024;22;20070;-84
2023/11/13 04:55:00;;;;;;;31.42;21.10;;;;;;;;;;6308375;22;20311;-83
2023/11/13 04:57:30;;;;;;;26.23;19.08;;;;;;;;;;6309752;22;20015;-85
2023/11/13 05:00:00;;;;;;;54.75;32.50;;;;;;;;;;6280220;22;20023;-84
2023/11/13 05:02:31;;;;;;;59.33;36.13;;;;;;;;;;6281443;22;20022;-85
2023/11/13 05:05:01;;;;;;;46.40;28.15;;;;;;;;;;6281586;22;20026;-83
2023/11/13 05:07:33;;;;;;;43.90;28.00;;;;;;;;;;6318583;22;20022;-82
2023/11/13 05:10:05;;;;;;;;;;;;;;;;;;6319659;22;20007;-84
2023/11/13 05:12:36;;;;;;;49.53;29.25;;;;;;;;;;6319173;22;19921;-83
2023/11/13 05:15:09;;;;;;;54.28;29.70;;;;;;;;;;6319097;22;20014;-83
2023/11/13 05:17:39;;;;;;;38.78;25.17;;;;;;;;;;6318875;22;20016;-84
2023/11/13 05:20:16;;;;;;;33.30;21.02;;;;;;;;;;6318851;22;20015;-82
2023/11/13 05:22:48;;;;;;;26.15;18.38;;;;;;;;;;6318477;22;20019;-83
2023/11/13 05:25:18;;;;;;;;;;;;;;;;;;6319230;22;20019;-84
2023/11/13 05:27:49;;;;;;;43.38;23.70;;;;;;;;;;6308137;22;19915;-82
2023/11/13 05:30:19;;;;;;;45.25;26.42;;;;;;;;;;6308462;22;20011;-81
2023/11/13 05:32:50;;;;;;;60.90;34.03;;;;;;;;;;6280317;22;20022;-83
2023/11/13 05:35:20;;;;;;;38.80;24.00;;;;;;;;;;6308555;22;20030;-82
2023/11/13 05:37:51;;;;;;;35.55;23.58;;;;;;;;;;6308085;22;20015;-82
2023/11/13 05:40:21;;;;;;;30.67;20.10;;;;;;;;;;6279682;22;20030;-84
2023/11/13 05:42:52;;;;;;;28.50;19.10;;;;;;;;;;6291462;22;20026;-84
2023/11/13 05:45:23;;;;;;;29.20;20.50;;;;;;;;;;6291673;22;20030;-83
2023/11/13 05:47:53;;;;;;;27.92;18.80;;;;;;;;;;6280505;22;20023;-86
2023/11/13 05:50:24;;;;;;;32.70;21.85;;;;;;;;;;6318700;22;20017;-84
2023/11/13 05:52:55;;;;;;;26.17;16.65;;;;;;;;;;6280072;22;20026;-84
2023/11/13 05:55:25;;;;;;;26.48;16.52;;;;;;;;;;6280386;22;20015;-83
2023/11/13 05:57:56;;;;;;;23.40;16.67;;;;;;;;;;6317798;22;20022;-86
2023/11/13 06:00:26;;;;;;;30.15;15.98;;;;;;;;;;6307498;22;20038;-83
2023/11/13 06:02:56;;;;;;;25.60;16.42;;;;;;;;;;6280948;22;20018;-83
2023/11/13 06:05:25;;;;;;;29.85;16.27;;;;;;;;;;6307201;22;20320;-86
2023/11/13 06:07:55;;;;;;;32.97;19.45;;;;;;;;;;6279318;22;20019;-84
2023/11/13 06:10:26;;;;;;;31.38;17.80;;;;;;;;;;6281005;22;20030;-86
2023/11/13 06:12:56;;;;;;;24.52;17.92;;;;;;;;;;6281004;22;20026;-84
2023/11/13 06:15:26;;;;;;;27.90;16.77;;;;;;;;;;6291269;22;20019;-84
2023/11/13 06:17:57;;;;;;;31.85;20.90;;;;;;;;;;6307867;22;20023;-85
2023/11/13 06:20:28;;;;;;;30.52;20.77;;;;;;;;;;6318056;22;20007;-84
2023/11/13 06:23:02;;;;;;;32.17;20.73;;;;;;;;;;6278717;22;20025;-84
2023/11/13 06:25:32;;;;;;;34.15;23.77;;;;;;;;;;6318537;22;20039;-85
2023/11/13 06:28:03;;;;;;;28.95;18.35;;;;;;;;;;6309885;22;20018;-85
2023/11/13 06:30:33;;;;;;;31.20;20.38;;;;;;;;;;6291241;22;20030;-86
2023/11/13 06:33:03;;;;;;;25.00;17.67;;;;;;;;;;6307219;22;20008;-85
2023/11/13 06:35:35;;;;;;;25.15;17.63;;;;;;;;;;6281824;22;20012;-86
2023/11/13 06:38:07;;;;;;;29.08;17.95;;;;;;;;;;6318438;22;20011;-86
2023/11/13 06:40:38;;;;;;;29.70;20.67;;;;;;;;;;6318555;22;20007;-86
2023/11/13 06:43:10;;;;;;;30.92;20.55;;;;;;;;;;6318643;22;20318;-83
2023/11/13 06:45:43;;;;;;;28.83;19.50;;;;;;;;;;6312916;22;20016;-85
2023/11/13 06:48:14;;;;;;;30.60;20.00;;;;;;;;;;6330364;22;20025;-83
2023/11/13 06:50:43;;;;;;;29.85;19.20;;;;;;;;;;6291023;22;20029;-86
2023/11/13 06:53:13;;;;;;;26.58;18.50;;;;;;;;;;6293017;22;20033;-85
2023/11/13 06:55:43;;;;;;;28.95;18.15;;;;;;;;;;6321209;22;20033;-85
2023/11/13 06:58:14;;;;;;;24.85;17.42;;;;;;;;;;6308874;22;20019;-82
2023/11/13 07:00:44;;;;;;;25.33;17.90;;;;;;;;;;6319017;22;20012;-83
2023/11/13 07:03:14;;;;;;;29.33;17.27;;;;;;;;;;6308367;22;20007;-82
2023/11/13 07:05:46;;;;;;;25.48;18.00;;;;;;;;;;6318769;22;20007;-82
2023/11/13 07:08:16;;;;;;;29.85;19.15;;;;;;;;;;6308010;22;20019;-85
2023/11/13 07:10:46;;;;;;;33.35;20.27;;;;;;;;;;6307067;22;20015;-83
2023/11/13 07:13:16;;;;;;;26.33;17.92;;;;;;;;;;6307843;22;20022;-84
2023/11/13 07:15:46;;;;;;;46.95;27.00;;;;;;;;;;6306836;22;20022;-83
2023/11/13 07:18:16;;;;;;;40.45;25.30;;;;;;;;;;6306973;22;20022;-82
2023/11/13 07:20:50;;;;;;;50.53;30.40;;;;;;;;;;6317541;22;20026;-86
2023/11/13 07:23:21;;;;;;;37.92;24.70;;;;;;;;;;6278895;22;20442;-82
2023/11/13 07:25:51;;;;;;;33.50;21.42;;;;;;;;;;6307644;22;20386;-83
2023/11/13 07:28:23;;;;;;;28.75;18.42;;;;;;;;;;6308310;22;20018;-85
2023/11/13 07:30:54;;;;;;;28.65;18.48;;;;;;;;;;6278851;22;20114;-85
2023/11/13 07:33:25;;;;;;;34.78;18.02;;;;;;;;;;6317957;22;20007;-84
2023/11/13 07:35:55;;;;;;;26.20;17.52;;;;;;;;;;6306589;22;20007;-85
2023/11/13 07:38:25;;;;;;;30.35;18.60;;;;;;;;;;6306774;22;20018;-84
2023/11/13 07:40:56;;;;;;;27.80;17.45;;;;;;;;;;6280084;22;20374;-85
2023/11/13 07:43:28;;;;;;;26.08;18.00;;;;;;;;;;6279255;22;20027;-84
2023/11/13 07:45:59;;;;;;;28.90;19.15;;;;;;;;;;6317053;22;20460;-82
2023/11/13 07:48:30;;;;;;;29.55;17.63;;;;;;;;;;6316680;22;20011;-84
2023/11/13 07:51:06;;;;;;;23.77;17.05;;;;;;;;;;6279188;22;20022;-82
2023/11/13 07:53:36;;;;;;;25.75;17.48;;;;;;;;;;6317564;22;20007;-84
2023/11/13 07:56:09;;;;;;;28.50;19.02;;;;;;;;;;6307173;22;20091;-84
2023/11/13 07:58:39;;;;;;;28.30;18.65;;;;;;;;;;6289851;22;20015;-84
2023/11/13 08:01:09;;;;;;;25.08;18.08;;;;;;;;;;6278986;22;20034;-84
2023/11/13 08:03:39;;;;;;;29.42;18.05;;;;;;;;;;6309139;22;20012;-86
2023/11/13 08:06:11;;;;;;;27.92;19.05;;;;;;;;;;6309199;22;20015;-84
2023/11/13 08:08:42;;;;;;;;;;;;;;;;;;6256582;22;20017;-85
2023/11/13 08:11:12;;;;;;;;;;;;;;;;;;6320098;22;19938;-84
2023/11/13 08:13:42;;;;;;;24.88;16.65;;;;;;;;;;6309134;22;19914;-83
2023/11/13 08:16:12;;;;;;;26.08;16.45;;;;;;;;;;6308962;22;20426;-82
2023/11/13 08:18:42;;;;;;;22.33;15.82;;;;;;;;;;6283673;22;20011;-80
2023/11/13 08:21:13;;;;;;;27.75;14.43;;;;;;;;;;6283457;22;20020;-83
2023/11/13 08:23:43;;;;;;;23.65;15.23;;;;;;;;;;6319712;22;20018;-83
2023/11/13 08:26:14;;;;;;;19.77;13.43;;;;;;;;;;6282222;22;20012;-82
2023/11/13 08:28:45;;;;;;;20.25;14.20;;;;;;;;;;6321244;22;20007;-85
2023/11/13 08:31:16;;;;;;;19.67;13.40;;;;;;;;;;6321239;22;20021;-82
2023/11/13 08:33:47;;;;;;;20.80;13.75;;;;;;;;;;6282989;22;20019;-83
2023/11/13 08:36:22;;;;;;;27.77;14.70;;;;;;;;;;6292445;22;20018;-81
2023/11/13 08:38:53;;;;;;;21.10;14.30;;;;;;;;;;6317961;22;20022;-83
2023/11/13 08:41:24;;;;;;;23.55;15.50;;;;;;;;;;6319082;22;20014;-83
2023/11/13 08:43:55;;;;;;;26.98;16.02;;;;;;;;;;6309762;22;20011;-82
2023/11/13 08:46:25;;;;;;;23.90;15.13;;;;;;;;;;6319780;22;20010;-83
2023/11/13 08:48:56;;;;;;;21.17;15.00;;;;;;;;;;6318996;22;20315;-83
2023/11/13 08:51:33;;;;;;;23.60;15.13;;;;;;;;;;6293254;22;20011;-84
2023/11/13 08:54:04;;;;;;;25.42;15.77;;;;;;;;;;6319374;22;20018;-81
2023/11/13 08:56:35;;;;;;;22.70;15.85;;;;;;;;;;6318546;22;20014;-83
2023/11/13 08:59:07;;;;;;;24.17;15.13;;;;;;;;;;6307807;22;20016;-83
2023/11/13 09:01:40;;;;;;;23.67;14.32;;;;;;;;;;6319079;22;20014;-84
2023/11/13 09:04:11;;;;;;;20.42;14.05;;;;;;;;;;6318753;22;20014;-84
2023/11/13 09:06:45;;;;;;;19.95;14.40;;;;;;;;;;6280231;22;20023;-82
2023/11/13 09:09:15;;;;;;;20.90;13.82;;;;;;;;;;6318333;22;20011;-84
2023/11/13 09:11:47;;;;;;;22.67;15.15;;;;;;;;;;6307792;22;20016;-85
2023/11/13 09:14:22;;;;;;;24.23;15.13;;;;;;;;;;6291883;22;20012;-81
2023/11/13 09:16:52;;;;;;;;;;;;;;;;;;6318748;22;20019;-84
2023/11/13 09:19:28;;;;;;;13.23;9.30;;;;;;;;;;6307616;22;19915;-83
2023/11/13 09:21:59;;;;;;;28.02;14.25;;;;;;;;;;6318141;22;20346;-84
2023/11/13 09:24:30;;;;;;;20.80;13.90;;;;;;;;;;6318700;22;20350;-82
2023/11/13 09:27:00;;;;;;;21.73;13.77;;;;;;;;;;6307754;22;20019;-83
2023/11/13 09:29:30;;;;;;;25.23;12.75;;;;;;;;;;6307791;22;20124;-85
2023/11/13 09:32:00;;;;;;;25.15;16.45;;;;;;;;;;6308366;22;20018;-84
2023/11/13 09:34:31;;;;;;;23.85;15.25;;;;;;;;;;6307543;22;20450;-83
2023/11/13 09:37:08;;;;;;;21.42;12.75;;;;;;;;;;6319028;22;20013;-84
2023/11/13 09:39:44;;;;;;;17.58;11.20;;;;;;;;;;6291683;22;20012;-83
2023/11/13 09:42:18;;;;;;;14.02;8.05;;;;;;;;;;6318756;22;20315;-82
2023/11/13 09:44:48;;;;;;;11.02;7.05;;;;;;;;;;6318583;22;20011;-85
2023/11/13 09:47:29;;;;;;;13.07;8.15;;;;;;;;;;6319312;22;20346;-85
2023/11/13 09:50:12;;;;;;;16.17;8.07;;;;;;;;;;6318632;22;20011;-83
2023/11/13 09:52:59;;;;;;;8.88;5.38;;;;;;;;;;6317843;22;20018;-82
2023/11/13 09:55:32;;;;;;;10.60;6.25;;;;;;;;;;6279588;22;20022;-83
2023/11/13 09:58:03;;;;;;;11.63;6.45;;;;;;;;;;6318357;22;20011;-85
2023/11/13 10:00:36;;;;;;;17.83;6.32;;;;;;;;;;6280116;22;20023;-83
2023/11/13 10:03:14;;;;;;;9.60;5.78;;;;;;;;;;6291069;22;20466;-83
2023/11/13 10:05:45;;;;;;;10.68;5.60;;;;;;;;;;6317960;22;20007;-82
2023/11/13 10:08:17;;;;;;;9.80;5.45;;;;;;;;;;6318580;22;20015;-83
2023/11/13 10:10:49;;;;;;;11.65;5.05;;;;;;;;;;6318163;22;20312;-83
2023/11/13 10:13:23;;;;;;;6.93;3.45;;;;;;;;;;6318165;22;20007;-82
2023/11/13 10:15:53;;;;;;;6.50;3.45;;;;;;;;;;6291593;22;20457;-83
2023/11/13 10:18:26;;;;;;;8.73;3.65;;;;;;;;;;6279321;22;20346;-83
2023/11/13 10:21:02;;;;;;;7.72;3.85;;;;;;;;;;6317941;22;20007;-83
2023/11/13 10:23:34;;;;;;;8.13;3.72;;;;;;;;;;6317856;22;20008;-83
2023/11/13 10:26:05;;;;;;;7.03;2.70;;;;;;;;;;6279715;22;20026;-84
2023/11/13 10:28:40;;;;;;;6.18;3.40;;;;;;;;;;6306940;22;20026;-83
2023/11/13 10:31:17;;;;;;;6.13;2.40;;;;;;;;;;6315363;22;20063;-85
2023/11/13 10:33:59;;;;;;;6.13;2.22;;;;;;;;;;6316709;22;20018;-85
2023/11/13 10:36:30;;;;;;;3.88;2.13;;;;;;;;;;6314909;22;20327;-82
2023/11/13 10:39:11;;;;;;;9.10;1.52;;;;;;;;;;6311470;22;20473;-80
2023/11/13 10:41:50;;;;;;;5.82;2.10;;;;;;;;;;6311730;22;20010;-81
2023/11/13 10:44:27;;;;;;;10.02;1.95;;;;;;;;;;6313594;22;20011;-80
2023/11/13 10:46:57;;;;;;;4.57;1.13;;;;;;;;;;6315118;22;20011;-81
2023/11/13 10:49:28;;;;;;;4.22;1.60;;;;;;;;;;6304399;22;20011;-81
2023/11/13 10:51:59;;;;;;;1.75;0.70;;;;;;;;;;6314602;22;20018;-79
2023/11/13 10:54:31;;;;;;;5.97;1.33;;;;;;;;;;6315815;22;20019;-82
2023/11/13 10:57:03;;;;;;;4.40;0.98;;;;;;;;;;6277857;22;20019;-82
2023/11/13 10:59:34;;;;;;;2.85;0.93;;;;;;;;;;6315876;22;20499;-83
2023/11/13 11:02:34;;;;;;;6.82;1.08;;;;;;;;;;6305681;22;20019;-83
2023/11/13 11:05:10;;;;;;;5.40;1.13;;;;;;;;;;6289619;22;20457;-81
2023/11/13 11:07:43;;;;;;;2.40;0.82;;;;;;;;;;6315832;22;20030;-82
2023/11/13 11:10:14;;;;;;;2.78;1.00;;;;;;;;;;6316026;22;20335;-83
2023/11/13 11:13:03;;;;;;;2.45;0.93;;;;;;;;;;6305376;22;20450;-81
2023/11/13 11:15:58;;;;;;;3.28;0.82;;;;;;;;;;6315943;22;20007;-81
2023/11/13 11:18:44;;;;;;;4.38;1.08;;;;;;;;;;6305567;22;20022;-80
2023/11/13 11:21:35;;;;;;;2.42;0.60;;;;;;;;;;6316525;22;20008;-82
2023/11/13 11:24:12;;;;;;;2.83;1.15;;;;;;;;;;6306462;22;20016;-83
2023/11/13 11:27:00;;;;;;;3.92;1.20;;;;;;;;;;6313596;22;20444;-84
2023/11/13 11:29:43;;;;;;;2.60;1.10;;;;;;;;;;6315800;22;20015;-83
2023/11/13 11:32:17;;;;;;;2.95;0.90;;;;;;;;;;6278431;22;20015;-83
2023/11/13 11:35:13;;;;;;;2.85;1.20;;;;;;;;;;6277836;22;20022;-84
2023/11/13 11:38:22;;;;;;;5.65;1.67;;;;;;;;;;6305354;22;20012;-81
2023/11/13 11:41:00;;;;;;;4.68;1.00;;;;;;;;;;6316152;22;20019;-81
2023/11/13 11:43:33;;;;;;;3.15;1.17;;;;;;;;;;6316044;22;20019;-83
2023/11/13 11:46:04;;;;;;;2.55;0.90;;;;;;;;;;6316007;22;20016;-82
2023/11/13 11:48:38;;;;;;;6.70;1.17;;;;;;;;;;6277594;22;20015;-82
2023/11/13 11:51:18;;;;;;;5.60;1.00;;;;;;;;;;6277365;22;20011;-82
2023/11/13 11:53:59;;;;;;;2.50;1.10;;;;;;;;;;6277528;22;20015;-82
2023/11/13 11:56:30;;;;;;;2.90;1.40;;;;;;;;;;6317275;22;20044;-83
2023/11/13 11:59:00;;;;;;;3.90;1.60;;;;;;;;;;6306941;22;20019;-82
2023/11/13 12:01:30;;;;;;;2.85;0.77;;;;;;;;;;6307116;22;20015;-82
2023/11/13 12:04:00;;;;;;;3.45;1.30;;;;;;;;;;6278526;22;20022;-84
2023/11/13 12:06:31;;;;;;;7.53;1.65;;;;;;;;;;6316909;22;20014;-83
2023/11/13 12:09:03;;;;;;;3.53;1.48;;;;;;;;;;6306191;22;20347;-82
2023/11/13 12:11:33;;;;;;;3.78;1.20;;;;;;;;;;6317309;22;20035;-81
2023/11/13 12:14:04;;;;;;;3.78;1.40;;;;;;;;;;6306385;22;20019;-85
2023/11/13 12:16:34;;;;;;;2.42;1.25;;;;;;;;;;6306745;22;20011;-82
2023/11/13 12:19:06;;;;;;;5.20;2.80;;;;;;;;;;6290180;22;20014;-84
2023/11/13 12:21:41;;;;;;;3.33;0.90;;;;;;;;;;6278399;22;20334;-83
2023/11/13 12:24:17;;;;;;;3.95;1.42;;;;;;;;;;6316815;22;20008;-84
2023/11/13 12:26:49;;;;;;;4.00;1.75;;;;;;;;;;6314072;22;20059;-83
2023/11/13 12:29:21;;;;;;;3.78;1.67;;;;;;;;;;6317225;22;20011;-82
2023/11/13 12:31:54;;;;;;;;;;;;;;;;;;6316954;22;20041;-84
2023/11/13 12:34:26;;;;;;;4.65;1.48;;;;;;;;;;6305139;22;19915;-84
2023/11/13 12:36:58;;;;;;;3.22;1.33;;;;;;;;;;6275547;22;20445;-83
2023/11/13 12:39:30;;;;;;;4.30;1.98;;;;;;;;;;6277777;22;20060;-83
2023/11/13 12:42:00;;;;;;;3.80;1.38;;;;;;;;;;6316144;22;20007;-84
2023/11/13 12:44:34;;;;;;;3.22;1.30;;;;;;;;;;6306566;22;20011;-85
2023/11/13 12:47:05;;;;;;;4.80;1.50;;;;;;;;;;6316172;22;20011;-84
2023/11/13 12:49:35;;;;;;;3.97;1.10;;;;;;;;;;6317162;22;20011;-82
2023/11/13 12:52:07;;;;;;;3.22;1.27;;;;;;;;;;6279127;22;20011;-84
2023/11/13 12:54:39;;;;;;;4.72;1.52;;;;;;;;;;6317823;22;20015;-83
2023/11/13 12:57:15;;;;;;;4.95;1.90;;;;;;;;;;6318415;22;20014;-82
2023/11/13 12:59:48;;;;;;;6.53;2.03;;;;;;;;;;6280990;22;20019;-85
2023/11/13 13:02:20;;;;;;;4.53;1.48;;;;;;;;;;6307534;22;20007;-85
2023/11/13 13:04:53;;;;;;;3.05;1.45;;;;;;;;;;6293006;22;20007;-85
2023/11/13 13:07:28;;;;;;;5.38;2.80;;;;;;;;;;6318620;22;20025;-83
2023/11/13 13:09:58;;;;;;;23.88;10.93;;;;;;;;;;6307391;22;20014;-83
2023/11/13 13:12:31;;;;;;;42.70;18.95;;;;;;;;;;6279573;22;20447;-84
2023/11/13 13:15:02;;;;;;;18.48;9.52;;;;;;;;;;6317790;22;20011;-88
2023/11/13 13:17:32;;;;;;;5.15;2.15;;;;;;;;;;6291705;22;20011;-83
2023/11/13 13:20:05;;;;;;;6.03;2.95;;;;;;;;;;6306855;22;20019;-84
2023/11/13 13:22:36;;;;;;;6.72;2.97;;;;;;;;;;6279956;22;20472;-82
2023/11/13 13:25:06;;;;;;;8.02;2.85;;;;;;;;;;6307735;22;20041;-82
2023/11/13 13:27:38;;;;;;;6.95;2.40;;;;;;;;;;6278503;22;20027;-82
2023/11/13 13:30:09;;;;;;;5.03;2.40;;;;;;;;;;6280811;22;20015;-81
2023/11/13 13:32:41;;;;;;;4.47;2.20;;;;;;;;;;6282892;22;20046;-79
2023/11/13 13:35:12;;;;;;;6.18;2.40;;;;;;;;;;6278846;22;20011;-85
2023/11/13 13:37:43;;;;;;;5.65;2.83;;;;;;;;;;6280087;22;20019;-83
2023/11/13 13:40:13;;;;;;;5.57;2.72;;;;;;;;;;6317232;22;20319;-82
2023/11/13 13:42:45;;;;;;;4.28;2.08;;;;;;;;;;6317299;22;20015;-82
2023/11/13 13:45:19;;;;;;;3.95;1.63;;;;;;;;;;6318359;22;20011;-83
2023/11/13 13:47:49;;;;;;;3.92;1.70;;;;;;;;;;6288974;22;20018;-85
2023/11/13 13:50:23;;;;;;;8.30;4.15;;;;;;;;;;6286164;22;20023;-87
2023/11/13 13:53:00;;;;;;;10.18;4.30;;;;;;;;;;6327479;22;20015;-87
2023/11/13 13:55:33;;;;;;;8.60;4.05;;;;;;;;;;6328173;22;20007;-82
2023/11/13 13:58:07;;;;;;;6.05;2.22;;;;;;;;;;6300674;22;20015;-84
2023/11/13 14:00:40;;;;;;;5.10;1.92;;;;;;;;;;6298456;22;20038;-83
2023/11/13 14:03:12;;;;;;;4.40;1.90;;;;;;;;;;6325667;22;20011;-86
2023/11/13 14:06:13;;;;;;;7.57;2.63;;;;;;;;;;6303889;22;20019;-82
2023/11/13 14:08:48;;;;;;;4.72;2.15;;;;;;;;;;6333128;22;20030;-84
2023/11/13 14:11:24;;;;;;;4.53;1.95;;;;;;;;;;6341109;22;20009;-83
2023/11/13 14:14:10;;;;;;;3.50;1.63;;;;;;;;;;6345205;22;20046;-83
2023/11/13 14:16:41;;;;;;;4.45;1.80;;;;;;;;;;6324664;22;20012;-83
2023/11/13 14:19:12;;;;;;;3.92;1.98;;;;;;;;;;6320039;22;20023;-82
2023/11/13 14:21:45;;;;;;;4.82;1.70;;;;;;;;;;6318874;22;20007;-82
2023/11/13 14:24:18;;;;;;;2.92;1.33;;;;;;;;;;6280057;22;20067;-81
2023/11/13 14:26:50;;;;;;;2.60;1.17;;;;;;;;;;6318618;22;20015;-83
2023/11/13 14:29:21;;;;;;;3.28;1.40;;;;;;;;;;6321325;22;20011;-80
2023/11/13 14:31:55;;;;;;;2.45;1.17;;;;;;;;;;6291769;22;20015;-82
2023/11/13 14:34:26;;;;;;;2.13;1.23;;;;;;;;;;6318040;22;20030;-82
2023/11/13 14:37:00;;;;;;;4.63;1.30;;;;;;;;;;6254259;22;20030;-82
2023/11/13 14:39:30;;;;;;;4.05;1.23;;;;;;;;;;6318035;22;20030;-81
2023/11/13 14:42:08;;;;;;;2.50;1.25;;;;;;;;;;6291756;22;20015;-83
2023/11/13 14:44:50;;;;;;;1.92;1.00;;;;;;;;;;6317821;22;20011;-80
2023/11/13 14:47:38;;;;;;;3.70;1.50;;;;;;;;;;6306251;22;20015;-81
2023/11/13 14:50:15;;;;;;;2.45;1.05;;;;;;;;;;6291342;22;20011;-81
2023/11/13 14:57:17;;;;;;;2.80;0.82;;;;;;;;;;6315886;22;20018;-83
2023/11/13 14:59:48;;;;;;;2.55;1.23;;;;;;;;;;6278927;22;20019;-82
2023/11/13 15:02:19;;;;;;;2.65;1.20;;;;;;;;;;6317349;22;20014;-81
2023/11/13 15:04:49;;;;;;;1.67;0.70;;;;;;;;;;6279133;22;20019;-81
2023/11/13 15:07:20;;;;;;;3.00;0.98;;;;;;;;;;6305100;22;20022;-84
2023/11/13 15:09:54;;;;;;;2.50;1.02;;;;;;;;;;6277597;22;20023;-88
2023/11/13 15:12:27;;;;;;;2.53;1.02;;;;;;;;;;6314384;22;20342;-88
2023/11/13 15:15:04;;;;;;;3.65;1.30;;;;;;;;;;6277669;22;20016;-87
2023/11/13 15:17:40;;;;;;;3.95;1.40;;;;;;;;;;6315379;22;20343;-87
2023/11/13 15:20:14;;;;;;;3.38;0.90;;;;;;;;;;6316338;22;20106;-85
2023/11/13 15:22:47;;;;;;;2.42;0.60;;;;;;;;;;6316185;22;20007;-85
2023/11/13 15:25:40;;;;;;;3.05;1.20;;;;;;;;;;6257650;22;20022;-84
2023/11/13 15:28:11;;;;;;;;;;;;;;;;;;6278545;22;20030;-87
2023/11/13 15:30:42;;;;;;;1.10;0.63;;;;;;;;;;6315951;22;19915;-84
2023/11/13 15:33:12;;;;;;;2.72;0.98;;;;;;;;;;6305291;22;20430;-86
2023/11/13 15:35:43;;;;;;;1.92;0.85;;;;;;;;;;6277771;22;20015;-92
2023/11/13 15:38:15;;;;;;;1.90;0.80;;;;;;;;;;6279392;22;20327;-86